Time;durP1;ratioP1;P1;durP2;ratioP2;P2;SDS_P1;SDS_P2;PMS_P1;PMS_P2;Temp;Humidity;BMP_temperature;BMP_pressure;BME280_temperature;BME280_humidity;BME280_pressure;Samples;Min_cycle;Max_cycle;Signal;HPM_P1;HPM_P2
2023/01/01 00:01:43;;;;;;;;;;;;;;;12.44;69.91;102365.72;5020620;28;20289;-76
2023/01/01 00:04:27;;;;;;;;;;;;;;;12.44;70.06;102367.66;5017683;28;20308;-76
2023/01/01 00:07:12;;;;;;;;;;;;;;;12.44;69.75;102362.19;5015109;28;19917;-76
2023/01/01 00:13:00;;;;;;;;;;;;;;;12.46;69.71;102365.44;5015484;28;20396;-75
2023/01/01 00:15:44;;;;;;;;;;;;;;;12.45;69.70;102363.78;5014212;28;19921;-75
2023/01/01 00:18:28;;;;;;;;;;;;;;;12.46;69.58;102359.97;5017206;28;20384;-75
2023/01/01 00:21:13;;;;;;;;;;;;;;;12.42;69.11;102353.47;5015661;28;19917;-75
2023/01/01 00:23:57;;;;;;;;;;;;;;;12.41;69.08;102351.84;5015227;28;19917;-75
2023/01/01 00:26:42;;;;;;;;;;;;;;;12.42;68.90;102348.00;5013904;28;19925;-75
2023/01/01 00:29:26;;;;;;;;;;;;;;;12.41;68.65;102349.09;5015628;28;20312;-76
2023/01/01 00:32:11;;;;;;;;;;;;;;;12.42;68.52;102354.28;5016004;28;19917;-75
2023/01/01 00:34:55;;;;;;;;;;;;;;;12.40;68.07;102351.03;5029623;28;19922;-76
2023/01/01 00:37:40;;;;;;;;;;;;;;;12.40;67.93;102356.47;5016911;28;19917;-77
2023/01/01 00:40:25;;;;;;;;;;;;;;;12.42;67.81;102348.00;5019988;28;19917;-75
2023/01/01 00:43:09;;;;;;;;;;;;;;;12.43;67.70;102346.91;5014908;28;19918;-78
2023/01/01 00:45:53;;;;;;;;;;;;;;;12.41;67.85;102340.91;5018656;28;19918;-78
2023/01/01 00:48:38;;;;;;;;;;;;;;;12.41;67.78;102338.19;5014853;28;19917;-78
2023/01/01 00:51:23;;;;;;;;;;;;;;;12.41;68.28;102332.75;5015244;28;19918;-77
2023/01/01 00:54:07;;;;;;;;;;;;;;;12.39;68.63;102337.69;5039035;22;20944;-73
2023/01/01 00:56:52;;;;;;;;;;;;;;;12.38;68.35;102344.25;5006096;28;20296;-73
2023/01/01 00:59:36;;;;;;;;;;;;;;;12.37;68.66;102340.69;5008828;28;19918;-73
2023/01/01 01:02:20;;;;;;;;;;;;;;;12.36;68.62;102343.69;5009306;28;19925;-73
2023/01/01 01:05:05;;;;;;;;;;;;;;;12.37;68.93;102345.34;5003030;28;19929;-73
2023/01/01 01:07:50;;;;;;;;;;;;;;;12.36;68.97;102344.50;5009564;28;19925;-73
2023/01/01 01:10:34;;;;;;;;;;;;;;;12.35;69.08;102342.88;5005177;28;19917;-73
2023/01/01 01:13:19;;;;;;;;;;;;;;;12.36;69.28;102349.97;5003087;28;19917;-73
2023/01/01 01:16:11;;;;;;;;;;;;;;;12.40;69.27;102347.47;5007259;28;19921;-73
2023/01/01 01:18:58;;;;;;;;;;;;;;;12.38;69.41;102357.88;5003203;28;19921;-73
2023/01/01 01:21:43;;;;;;;;;;;;;;;12.33;69.63;102350.56;5029366;28;20293;-73
2023/01/01 01:24:28;;;;;;;;;;;;;;;12.34;69.55;102352.16;5015301;28;19922;-73
2023/01/01 01:27:12;;;;;;;;;;;;;;;12.33;69.69;102349.75;5013957;28;19918;-73
2023/01/01 01:29:56;;;;;;;;;;;;;;;12.34;69.99;102351.38;5030044;28;19917;-73
2023/01/01 01:32:41;;;;;;;;;;;;;;;12.34;69.91;102345.91;4994729;28;19918;-73
2023/01/01 01:35:25;;;;;;;;;;;;;;;12.32;69.99;102345.38;4993921;28;19921;-73
2023/01/01 01:38:10;;;;;;;;;;;;;;;12.33;69.97;102342.38;4994634;28;19954;-73
2023/01/01 01:40:54;;;;;;;;;;;;;;;12.37;69.87;102332.50;5006878;28;20300;-73
2023/01/01 01:43:38;;;;;;;;;;;;;;;12.36;70.01;102340.97;5013431;28;19925;-73
2023/01/01 01:46:29;;;;;;;;;;;;;;;12.36;69.98;102343.69;5031783;28;20404;-73
2023/01/01 01:49:16;;;;;;;;;;;;;;;12.31;70.17;102333.66;5013893;28;19917;-73
2023/01/01 01:52:00;;;;;;;;;;;;;;;12.33;70.43;102336.09;4996291;28;20305;-73
2023/01/01 01:54:45;;;;;;;;;;;;;;;12.35;70.24;102339.34;4993914;28;19917;-73
2023/01/01 01:57:30;;;;;;;;;;;;;;;12.32;70.41;102334.47;4994222;28;20297;-73
2023/01/01 02:00:15;;;;;;;;;;;;;;;12.31;70.50;102335.56;4994069;28;19918;-73
2023/01/01 02:03:03;;;;;;;;;;;;;;;12.30;70.48;102339.38;5015721;28;19921;-73
2023/01/01 02:05:49;;;;;;;;;;;;;;;12.31;70.52;102335.56;5011732;28;20309;-73
2023/01/01 02:08:34;;;;;;;;;;;;;;;12.32;70.31;102321.66;5013514;28;19917;-73
2023/01/01 02:11:18;;;;;;;;;;;;;;;12.32;70.51;102320.84;5008431;28;20373;-73
2023/01/01 02:14:03;;;;;;;;;;;;;;;12.32;70.62;102315.38;4996323;28;20289;-73
2023/01/01 02:16:50;;;;;;;;;;;;;;;12.33;70.37;102306.09;4993595;28;19930;-73
2023/01/01 02:19:34;;;;;;;;;;;;;;;12.30;70.33;102307.47;4993471;28;19918;-73
2023/01/01 02:22:22;;;;;;;;;;;;;;;12.30;70.38;102301.19;5002560;28;19917;-73
2023/01/01 02:25:25;;;;;;;;;;;;;;;12.30;70.41;102295.75;5013108;28;20296;-74
2023/01/01 02:28:29;;;;;;;;;;;;;;;12.29;70.43;102299.59;5017163;28;19917;-73
2023/01/01 02:31:15;;;;;;;;;;;;;;;12.27;70.63;102302.59;5011970;28;19917;-73
2023/01/01 02:34:03;;;;;;;;;;;;;;;12.25;70.71;102298.53;5012409;28;20316;-73
2023/01/01 02:36:49;;;;;;;;;;;;;;;12.26;70.88;102302.88;5012969;28;19921;-73
2023/01/01 02:39:36;;;;;;;;;;;;;;;12.26;70.89;102305.59;5013181;28;19917;-73
2023/01/01 02:42:23;;;;;;;;;;;;;;;12.27;70.65;102305.31;5010092;28;20299;-73
2023/01/01 02:45:08;;;;;;;;;;;;;;;12.27;70.65;102297.16;5006458;28;19917;-73
2023/01/01 02:47:53;;;;;;;;;;;;;;;12.29;70.99;102305.06;5008720;28;19917;-73
2023/01/01 02:50:37;;;;;;;;;;;;;;;12.26;70.94;102297.44;5012783;28;19922;-73
2023/01/01 02:53:28;;;;;;;;;;;;;;;12.28;70.90;102303.41;5015796;28;19918;-73
2023/01/01 02:56:22;;;;;;;;;;;;;;;12.25;71.22;102312.16;4993024;28;19934;-73
2023/01/01 03:02:23;;;;;;;;;;;;;;;12.23;71.52;102307.00;4994704;28;19918;-73
2023/01/01 03:05:17;;;;;;;;;;;;;;;12.22;71.61;102310.03;4994619;28;19917;-73
2023/01/01 03:08:21;;;;;;;;;;;;;;;12.21;71.70;102313.84;5027927;28;19922;-73
2023/01/01 03:11:10;;;;;;;;;;;;;;;12.23;71.62;102317.09;5007144;28;20388;-73
2023/01/01 03:13:55;;;;;;;;;;;;;;;12.21;71.81;102314.66;5007740;28;19939;-73
2023/01/01 03:16:43;;;;;;;;;;;;;;;12.21;71.86;102311.09;4992300;28;20393;-73
2023/01/01 03:19:29;;;;;;;;;;;;;;;12.22;71.67;102302.66;4992860;28;19918;-73
2023/01/01 03:22:17;;;;;;;;;;;;;;;12.22;71.81;102301.84;4997093;28;19917;-73
2023/01/01 03:25:02;;;;;;;;;;;;;;;12.22;71.80;102294.47;5001592;28;19944;-73
2023/01/01 03:27:48;;;;;;;;;;;;;;;12.24;72.01;102297.69;5008334;28;19917;-73
2023/01/01 03:30:35;;;;;;;;;;;;;;;12.25;71.91;102293.06;5020622;28;19917;-73
2023/01/01 03:33:27;;;;;;;;;;;;;;;12.24;71.90;102288.72;5018435;28;19918;-74
2023/01/01 03:36:17;;;;;;;;;;;;;;;12.22;72.05;102293.66;5009066;28;19922;-74
2023/01/01 03:39:05;;;;;;;;;;;;;;;12.21;72.03;102292.03;5038060;28;20400;-74
2023/01/01 03:42:08;;;;;;;;;;;;;;;12.21;72.07;102295.56;5010626;28;19917;-74
2023/01/01 03:44:56;;;;;;;;;;;;;;;12.18;72.10;102293.44;5014086;28;19917;-74
2023/01/01 03:47:41;;;;;;;;;;;;;;;12.18;72.29;102285.25;5000502;28;19921;-73
2023/01/01 03:50:38;;;;;;;;;;;;;;;12.19;72.13;102286.84;5016058;28;20320;-74
2023/01/01 03:53:29;;;;;;;;;;;;;;;12.18;72.31;102289.88;5015846;28;19943;-74
2023/01/01 03:56:40;;;;;;;;;;;;;;;12.17;72.23;102280.06;5016013;28;19921;-74
2023/01/01 03:59:29;;;;;;;;;;;;;;;12.15;72.38;102276.78;4995284;28;19918;-74
2023/01/01 04:02:16;;;;;;;;;;;;;;;12.17;72.28;102280.06;4996738;28;19921;-74
2023/01/01 04:05:02;;;;;;;;;;;;;;;12.14;72.55;102269.75;5007345;28;19921;-74
2023/01/01 04:07:47;;;;;;;;;;;;;;;12.10;72.47;102272.22;4998358;28;19917;-74
2023/01/01 04:10:34;;;;;;;;;;;;;;;12.10;72.76;102264.03;5014035;28;19917;-74
2023/01/01 04:13:19;;;;;;;;;;;;;;;12.13;72.67;102268.94;5012098;28;19917;-74
2023/01/01 04:16:04;;;;;;;;;;;;;;;12.12;72.66;102269.22;5013732;28;19921;-74
2023/01/01 04:18:48;;;;;;;;;;;;;;;12.12;72.65;102266.47;4999083;28;19918;-74
2023/01/01 04:21:33;;;;;;;;;;;;;;;12.10;72.59;102274.13;4997319;28;20396;-74
2023/01/01 04:24:17;;;;;;;;;;;;;;;12.09;72.80;102286.94;4995559;28;19918;-74
2023/01/01 04:27:02;;;;;;;;;;;;;;;12.08;72.98;102279.06;5000647;28;20380;-74
2023/01/01 04:29:46;;;;;;;;;;;;;;;12.06;72.94;102270.34;5015742;28;19918;-74
2023/01/01 04:32:31;;;;;;;;;;;;;;;12.05;73.04;102271.44;5014929;28;19929;-74
2023/01/01 04:35:15;;;;;;;;;;;;;;;12.03;73.19;102274.47;5016261;28;19918;-74
2023/01/01 04:38:02;;;;;;;;;;;;;;;12.07;73.11;102282.88;5005701;28;19921;-74
2023/01/01 04:40:56;;;;;;;;;;;;;;;12.05;73.06;102282.34;5010016;28;20296;-74
2023/01/01 04:43:40;;;;;;;;;;;;;;;12.05;73.12;102290.53;5026264;28;20400;-74
2023/01/01 04:46:25;;;;;;;;;;;;;;;12.06;73.05;102281.25;5024927;28;19918;-74
2023/01/01 04:49:10;;;;;;;;;;;;;;;12.06;72.99;102281.25;5009358;28;19918;-74
2023/01/01 04:51:54;;;;;;;;;;;;;;;12.06;72.92;102284.78;5010126;28;20304;-74
2023/01/01 04:54:39;;;;;;;;;;;;;;;12.08;72.98;102281.78;5016334;28;19926;-74
2023/01/01 04:57:23;;;;;;;;;;;;;;;12.08;72.74;102281.78;5014656;28;19921;-74
2023/01/01 05:00:08;;;;;;;;;;;;;;;12.08;72.72;102279.88;5007097;28;19917;-74
2023/01/01 05:02:53;;;;;;;;;;;;;;;12.08;72.87;102287.25;5014775;28;19918;-74
2023/01/01 05:05:37;;;;;;;;;;;;;;;12.07;72.93;102280.16;5014519;28;20292;-74
2023/01/01 05:08:21;;;;;;;;;;;;;;;12.06;73.00;102290.25;5012543;28;20004;-74
2023/01/01 05:11:08;;;;;;;;;;;;;;;12.06;73.06;102290.25;4995195;28;19917;-74
2023/01/01 05:13:54;;;;;;;;;;;;;;;12.06;73.00;102292.97;5011687;28;19917;-74
2023/01/01 05:16:39;;;;;;;;;;;;;;;12.04;72.95;102289.72;5031923;28;19929;-74
2023/01/01 05:19:23;;;;;;;;;;;;;;;12.06;72.82;102292.97;5007680;28;19918;-74
2023/01/01 05:22:08;;;;;;;;;;;;;;;12.08;72.71;102292.69;4995790;28;19926;-74
2023/01/01 05:24:53;;;;;;;;;;;;;;;12.09;72.49;102294.34;4994606;28;19921;-74
2023/01/01 05:27:37;;;;;;;;;;;;;;;12.07;72.44;102297.34;4994523;28;19918;-74
2023/01/01 05:30:22;;;;;;;;;;;;;;;12.06;72.65;102294.88;4996240;28;19918;-74
2023/01/01 05:33:06;;;;;;;;;;;;;;;12.05;72.54;102290.53;5013921;28;20380;-74
2023/01/01 05:35:53;;;;;;;;;;;;;;;12.06;72.59;102294.88;5012672;28;19929;-74
2023/01/01 05:38:38;;;;;;;;;;;;;;;12.04;72.45;102291.66;5013924;28;19917;-74
2023/01/01 05:41:23;;;;;;;;;;;;;;;12.03;72.69;102292.75;4997987;28;19918;-74
2023/01/01 05:44:08;;;;;;;;;;;;;;;12.04;72.83;102288.94;4994601;28;19918;-73
2023/01/01 05:46:52;;;;;;;;;;;;;;;12.03;72.60;102292.75;5005805;28;19917;-74
2023/01/01 05:49:38;;;;;;;;;;;;;;;12.04;72.66;102291.66;5012330;28;19918;-74
2023/01/01 05:52:22;;;;;;;;;;;;;;;12.04;72.67;102289.72;5013315;28;19917;-74
2023/01/01 05:55:07;;;;;;;;;;;;;;;12.05;72.78;102295.97;5014145;28;19921;-74
2023/01/01 05:57:51;;;;;;;;;;;;;;;12.04;72.66;102294.38;5013203;28;19925;-74
2023/01/01 06:00:36;;;;;;;;;;;;;;;12.04;72.77;102288.94;5010924;28;19926;-73
2023/01/01 06:03:21;;;;;;;;;;;;;;;12.05;72.55;102295.97;4994106;28;20289;-73
2023/01/01 06:06:06;;;;;;;;;;;;;;;12.04;72.78;102292.44;4994225;28;19917;-74
2023/01/01 06:08:52;;;;;;;;;;;;;;;12.06;72.68;102290.25;4994038;28;19922;-74
2023/01/01 06:11:37;;;;;;;;;;;;;;;12.02;72.63;102280.22;5000958;28;19917;-74
2023/01/01 06:14:21;;;;;;;;;;;;;;;12.05;72.77;102293.25;5041620;28;20300;-74
2023/01/01 06:17:06;;;;;;;;;;;;;;;12.05;72.49;102279.63;5016232;28;20308;-74
2023/01/01 06:19:51;;;;;;;;;;;;;;;12.03;72.52;102279.94;5013297;28;19921;-73
2023/01/01 06:22:36;;;;;;;;;;;;;;;12.05;72.40;102271.44;5001501;28;19918;-74
2023/01/01 06:25:20;;;;;;;;;;;;;;;12.04;72.45;102284.25;4994450;28;19921;-73
2023/01/01 06:28:05;;;;;;;;;;;;;;;12.04;72.32;102291.66;4996462;28;19926;-73
2023/01/01 06:30:49;;;;;;;;;;;;;;;12.04;72.38;102292.44;4993544;28;19918;-74
2023/01/01 06:33:33;;;;;;;;;;;;;;;12.05;72.47;102285.88;5008857;28;19917;-74
2023/01/01 06:36:19;;;;;;;;;;;;;;;12.03;72.50;102290.03;5015455;28;19929;-73
2023/01/01 06:39:04;;;;;;;;;;;;;;;12.02;72.39;102300.09;5012706;28;19921;-74
2023/01/01 06:41:48;;;;;;;;;;;;;;;12.04;72.50;102302.56;5012899;28;19917;-74
2023/01/01 06:44:32;;;;;;;;;;;;;;;12.03;72.52;102309.91;5005642;28;19917;-73
2023/01/01 06:47:17;;;;;;;;;;;;;;;12.00;72.68;102303.13;5012610;28;19917;-73
2023/01/01 06:50:02;;;;;;;;;;;;;;;12.02;72.83;102299.28;5012832;28;20305;-74
2023/01/01 06:52:47;;;;;;;;;;;;;;;12.02;72.70;102305.56;5010009;28;20328;-74
2023/01/01 06:55:31;;;;;;;;;;;;;;;12.02;72.76;102304.75;4993039;28;19921;-75
2023/01/01 06:58:16;;;;;;;;;;;;;;;12.02;72.55;102304.75;5000087;28;19921;-75
2023/01/01 07:01:20;;;;;;;;;;;;;;;12.02;72.48;102307.47;5012582;28;19918;-75
2023/01/01 07:04:07;;;;;;;;;;;;;;;12.00;72.63;102310.47;4997294;28;19918;-74
2023/01/01 07:06:51;;;;;;;;;;;;;;;12.02;72.84;102321.09;4992226;28;19922;-75
2023/01/01 07:09:35;;;;;;;;;;;;;;;12.01;72.78;102314.84;4993043;28;19918;-75
2023/01/01 07:12:20;;;;;;;;;;;;;;;12.01;72.81;102306.66;5010817;28;19917;-75
2023/01/01 07:15:07;;;;;;;;;;;;;;;12.02;72.93;102302.03;5004334;28;20262;-74
2023/01/01 07:17:51;;;;;;;;;;;;;;;12.02;72.80;102299.28;5009596;28;19921;-75
2023/01/01 07:20:36;;;;;;;;;;;;;;;12.03;72.97;102307.19;5007237;28;19921;-75
2023/01/01 07:23:20;;;;;;;;;;;;;;;12.04;73.17;102308.78;5008581;28;19918;-75
2023/01/01 07:26:05;;;;;;;;;;;;;;;12.04;72.97;102314.25;5034435;28;19917;-75
2023/01/01 07:28:49;;;;;;;;;;;;;;;12.06;73.20;102305.78;5012592;28;19918;-75
2023/01/01 07:31:35;;;;;;;;;;;;;;;12.05;73.18;102304.16;5012392;28;19918;-74
2023/01/01 07:34:21;;;;;;;;;;;;;;;12.04;73.28;102302.56;5011630;28;19918;-74
2023/01/01 07:37:06;;;;;;;;;;;;;;;12.00;73.55;102297.66;5011784;28;19922;-75
2023/01/01 07:39:50;;;;;;;;;;;;;;;12.01;73.49;102303.94;5011678;28;19926;-76
2023/01/01 07:42:35;;;;;;;;;;;;;;;12.03;73.47;102303.66;5010993;28;19917;-75
2023/01/01 07:45:19;;;;;;;;;;;;;;;12.03;73.63;102307.19;5006413;28;19918;-75
2023/01/01 07:48:04;;;;;;;;;;;;;;;12.03;73.70;102317.28;4992756;28;19917;-76
2023/01/01 07:50:49;;;;;;;;;;;;;;;12.02;73.77;102311.00;5012836;28;19917;-75
2023/01/01 07:53:34;;;;;;;;;;;;;;;12.04;73.78;102318.91;5031459;28;19917;-76
2023/01/01 07:56:18;;;;;;;;;;;;;;;12.02;74.10;102323.81;5002583;28;20380;-75
2023/01/01 07:59:03;;;;;;;;;;;;;;;12.02;73.98;102324.66;5012164;28;20384;-75
2023/01/01 08:01:47;;;;;;;;;;;;;;;12.03;74.30;102323.56;5011204;28;19917;-75
2023/01/01 08:04:32;;;;;;;;;;;;;;;12.07;74.00;102326.50;5010354;28;19921;-75
2023/01/01 08:07:17;;;;;;;;;;;;;;;12.06;74.07;102322.97;5005510;28;19917;-75
2023/01/01 08:10:02;;;;;;;;;;;;;;;12.05;74.11;102320.53;5003223;28;19917;-74
2023/01/01 08:12:46;;;;;;;;;;;;;;;12.02;74.26;102319.19;5000693;28;20292;-74
2023/01/01 08:15:32;;;;;;;;;;;;;;;12.02;74.41;102321.09;5011835;28;19917;-75
2023/01/01 08:18:16;;;;;;;;;;;;;;;12.02;74.42;102326.56;5047153;28;19921;-75
2023/01/01 08:21:01;;;;;;;;;;;;;;;12.03;74.50;102330.91;5015614;28;19917;-75
2023/01/01 08:23:46;;;;;;;;;;;;;;;12.01;74.64;102328.47;5033309;28;19918;-74
2023/01/01 08:26:32;;;;;;;;;;;;;;;12.00;74.57;102333.09;5015135;28;19917;-75
2023/01/01 08:29:16;;;;;;;;;;;;;;;12.02;74.81;102332.81;5031140;28;19917;-74
2023/01/01 08:32:01;;;;;;;;;;;;;;;12.03;74.86;102333.63;5015519;28;19918;-75
2023/01/01 08:34:45;;;;;;;;;;;;;;;12.02;74.68;102335.56;4997647;28;19918;-75
2023/01/01 08:37:30;;;;;;;;;;;;;;;12.01;75.12;102339.38;4995437;28;19926;-75
2023/01/01 08:40:17;;;;;;;;;;;;;;;12.02;75.06;102326.56;4995946;28;19917;-74
2023/01/01 08:43:01;;;;;;;;;;;;;;;12.03;74.94;102328.19;4999543;28;19917;-75
2023/01/01 08:45:46;;;;;;;;;;;;;;;12.03;75.23;102322.75;5005906;28;20312;-75
2023/01/01 08:48:30;;;;;;;;;;;;;;;12.04;75.34;102327.09;5015180;28;19917;-75
2023/01/01 08:51:14;;;;;;;;;;;;;;;12.04;75.50;102327.88;5019731;28;20369;-75
2023/01/01 08:53:59;;;;;;;;;;;;;;;12.07;75.48;102329.25;5013696;28;19948;-75
2023/01/01 08:56:43;;;;;;;;;;;;;;;12.08;75.21;102330.88;5014367;28;19922;-74
2023/01/01 08:59:28;;;;;;;;;;;;;;;12.06;75.36;102333.88;5040336;28;19943;-75
2023/01/01 09:02:12;;;;;;;;;;;;;;;12.07;75.29;102334.69;5014820;28;19921;-75
2023/01/01 09:04:56;;;;;;;;;;;;;;;12.09;75.34;102337.97;5013854;28;20388;-76
2023/01/01 09:07:41;;;;;;;;;;;;;;;12.10;75.17;102332.19;5013567;28;19917;-75
2023/01/01 09:10:25;;;;;;;;;;;;;;;12.11;75.57;102327.56;5010236;28;20300;-75
2023/01/01 09:13:10;;;;;;;;;;;;;;;12.11;75.49;102327.56;5012569;28;19917;-75
2023/01/01 09:15:55;;;;;;;;;;;;;;;12.12;75.69;102324.56;5014216;28;19917;-75
2023/01/01 09:18:40;;;;;;;;;;;;;;;12.15;75.65;102334.88;5010035;28;19922;-75
2023/01/01 09:21:24;;;;;;;;;;;;;;;12.15;75.43;102339.53;4994747;28;19918;-74
2023/01/01 09:24:08;;;;;;;;;;;;;;;12.13;75.71;102339.84;4994781;28;19918;-74
2023/01/01 09:26:52;;;;;;;;;;;;;;;12.14;75.66;102332.47;4998646;28;19922;-74
2023/01/01 09:29:37;;;;;;;;;;;;;;;11.68;78.18;102337.41;5007692;28;19917;-75
2023/01/01 09:32:22;;;;;;;;;;;;;;;11.44;80.43;102340.00;5028362;28;19918;-75
2023/01/01 09:35:07;;;;;;;;;;;;;;;11.60;79.84;102327.91;5014048;28;19917;-74
2023/01/01 09:37:51;;;;;;;;;;;;;;;11.08;81.61;102333.91;5013499;28;19921;-75
2023/01/01 09:40:45;;;;;;;;;;;;;;;11.07;82.31;102327.66;5013993;28;20296;-74
2023/01/01 09:43:49;;;;;;;;;;;;;;;11.06;82.44;102322.50;5005589;28;20301;-75
2023/01/01 09:46:35;;;;;;;;;;;;;;;11.14;81.70;102322.72;5027352;28;19917;-74
2023/01/01 09:49:40;;;;;;;;;;;;;;;10.93;83.20;102326.63;5008342;28;19943;-74
2023/01/01 09:52:30;;;;;;;;;;;;;;;11.28;82.51;102322.09;5009081;28;19918;-74
2023/01/01 09:55:27;;;;;;;;;;;;;;;10.98;82.95;102331.22;5009630;28;20296;-75
2023/01/01 09:58:12;;;;;;;;;;;;;;;10.93;83.55;102334.78;5008818;28;19921;-74
2023/01/01 10:01:00;;;;;;;;;;;;;;;10.93;83.76;102326.63;5007923;28;19917;-75
2023/01/01 10:03:52;;;;;;;;;;;;;;;11.09;83.65;102327.38;5006494;28;20380;-74
2023/01/01 10:06:40;;;;;;;;;;;;;;;11.32;82.98;102317.75;5012902;28;19917;-74
2023/01/01 10:09:32;;;;;;;;;;;;;;;11.49;82.00;102321.72;5012897;28;19917;-75
2023/01/01 10:12:23;;;;;;;;;;;;;;;11.44;81.83;102316.28;5004904;28;19921;-77
2023/01/01 10:15:12;;;;;;;;;;;;;;;11.46;81.14;102314.13;5008655;28;19918;-77
2023/01/01 10:17:58;;;;;;;;;;;;;;;11.15;83.02;102310.75;5022548;28;19922;-76
2023/01/01 10:20:45;;;;;;;;;;;;;;;11.05;83.51;102313.50;4996963;28;19922;-76
2023/01/01 10:23:33;;;;;;;;;;;;;;;11.22;83.24;102304.19;5002140;28;19917;-77
2023/01/01 10:26:20;;;;;;;;;;;;;;;11.19;83.63;102300.09;5010682;28;20376;-76
2023/01/01 10:29:07;;;;;;;;;;;;;;;11.13;83.86;102306.66;5012224;28;19917;-76
2023/01/01 10:31:54;;;;;;;;;;;;;;;11.21;83.12;102297.09;5011372;28;19919;-77
2023/01/01 10:34:38;;;;;;;;;;;;;;;11.35;82.77;102295.38;5010567;28;19921;-76
2023/01/01 10:37:23;;;;;;;;;;;;;;;11.46;81.95;102297.78;5010892;28;19925;-77
2023/01/01 10:40:18;;;;;;;;;;;;;;;11.76;80.82;102296.78;5011372;28;19921;-77
2023/01/01 10:43:05;;;;;;;;;;;;;;;11.86;80.88;102295.88;5012970;28;20336;-78
2023/01/01 10:45:52;;;;;;;;;;;;;;;11.57;80.35;102290.34;5015909;28;19918;-78
2023/01/01 10:48:38;;;;;;;;;;;;;;;11.40;81.32;102295.34;5024960;28;19918;-78
2023/01/01 10:51:25;;;;;;;;;;;;;;;11.44;82.43;102285.50;5007276;28;19921;-78
2023/01/01 10:54:23;;;;;;;;;;;;;;;11.32;82.81;102279.63;5011065;28;20389;-77
2023/01/01 10:57:31;;;;;;;;;;;;;;;11.22;82.39;102269.59;4994191;28;19921;-77
2023/01/01 11:00:23;;;;;;;;;;;;;;;11.23;82.79;102278.56;4992651;28;19918;-77
2023/01/01 11:03:11;;;;;;;;;;;;;;;11.51;82.42;102272.41;5014870;28;20377;-78
2023/01/01 11:06:01;;;;;;;;;;;;;;;11.43;81.45;102259.38;5021999;28;19917;-78
2023/01/01 11:08:55;;;;;;;;;;;;;;;11.46;81.86;102261.53;5008356;28;19921;-77
2023/01/01 11:11:40;;;;;;;;;;;;;;;11.26;82.43;102258.97;5013340;28;20392;-78
2023/01/01 11:14:26;;;;;;;;;;;;;;;11.07;83.16;102259.59;5010681;28;19917;-77
2023/01/01 11:17:11;;;;;;;;;;;;;;;11.81;80.24;102255.84;5007100;28;19921;-77
2023/01/01 11:19:59;;;;;;;;;;;;;;;12.15;79.81;102260.44;5001647;28;19918;-77
2023/01/01 11:22:51;;;;;;;;;;;;;;;12.33;80.11;102249.63;5030704;28;19921;-77
2023/01/01 11:25:36;;;;;;;;;;;;;;;12.62;78.85;102248.75;5026023;28;19918;-77
2023/01/01 11:28:21;;;;;;;;;;;;;;;12.53;79.02;102245.03;5013296;28;19921;-77
2023/01/01 11:31:08;;;;;;;;;;;;;;;12.90;77.48;102244.31;4998120;28;19918;-78
2023/01/01 11:33:54;;;;;;;;;;;;;;;12.84;77.67;102246.28;5007470;28;19921;-77
2023/01/01 11:36:39;;;;;;;;;;;;;;;12.41;79.91;102232.63;5013734;28;19925;-78
2023/01/01 11:39:25;;;;;;;;;;;;;;;13.14;77.05;102236.91;5010896;28;19921;-78
2023/01/01 11:42:16;;;;;;;;;;;;;;;13.17;76.57;102233.56;5010379;28;20377;-76
2023/01/01 11:45:05;;;;;;;;;;;;;;;13.31;75.79;102231.72;4992292;28;20377;-78
2023/01/01 11:47:59;;;;;;;;;;;;;;;12.91;77.38;102230.34;4992479;28;19921;-79
2023/01/01 11:50:51;;;;;;;;;;;;;;;13.16;76.86;102226.47;5022550;28;19921;-78
2023/01/01 11:53:40;;;;;;;;;;;;;;;13.18;77.06;102227.00;5016927;28;20299;-78
2023/01/01 11:56:24;;;;;;;;;;;;;;;13.17;77.39;102222.66;5020424;28;20376;-79
2023/01/01 11:59:14;;;;;;;;;;;;;;;13.20;76.96;102217.44;5017572;28;19921;-78
2023/01/01 12:02:02;;;;;;;;;;;;;;;13.42;75.77;102211.34;5012333;28;19917;-77
2023/01/01 12:04:55;;;;;;;;;;;;;;;13.32;76.49;102207.94;5020513;28;19917;-77
2023/01/01 12:07:42;;;;;;;;;;;;;;;13.31;76.10;102211.81;5023974;28;19917;-78
2023/01/01 12:10:30;;;;;;;;;;;;;;;13.39;76.25;102211.13;5018339;28;19917;-78
2023/01/01 12:13:17;;;;;;;;;;;;;;;13.31;76.19;102211.81;5008781;28;19921;-78
2023/01/01 12:16:08;;;;;;;;;;;;;;;13.48;75.65;102212.88;5039087;28;20318;-77
2023/01/01 12:19:01;;;;;;;;;;;;;;;13.51;76.05;102206.81;5032559;28;19922;-77
2023/01/01 12:21:48;;;;;;;;;;;;;;;13.54;75.71;102203.50;5024858;28;19918;-77
2023/01/01 12:24:34;;;;;;;;;;;;;;;13.58;75.83;102207.25;5013656;28;20398;-77
2023/01/01 12:27:21;;;;;;;;;;;;;;;13.33;76.40;102204.91;5021036;28;19917;-78
2023/01/01 12:30:12;;;;;;;;;;;;;;;13.46;77.29;102203.38;5019527;28;19918;-77
2023/01/01 12:33:02;;;;;;;;;;;;;;;13.59;76.57;102205.31;5014533;28;19925;-77
2023/01/01 12:35:49;;;;;;;;;;;;;;;13.55;75.39;102198.84;5017018;28;19917;-76
2023/01/01 12:38:52;;;;;;;;;;;;;;;13.33;76.31;102201.38;5046597;28;19933;-77
2023/01/01 12:41:59;;;;;;;;;;;;;;;13.38;76.90;102193.91;5017284;28;19926;-77
2023/01/01 12:45:02;;;;;;;;;;;;;;;13.37;76.26;102184.09;5011383;28;19922;-77
2023/01/01 12:48:07;;;;;;;;;;;;;;;13.02;76.77;102190.06;5026436;28;19917;-76
2023/01/01 12:50:55;;;;;;;;;;;;;;;12.80;78.28;102191.44;5002866;28;20305;-77
2023/01/01 12:53:46;;;;;;;;;;;;;;;12.94;77.03;102191.56;5030214;28;19918;-77
2023/01/01 12:56:49;;;;;;;;;;;;;;;13.27;76.72;102195.19;5007375;28;19925;-77
2023/01/01 12:59:38;;;;;;;;;;;;;;;13.45;75.39;102190.81;5007306;28;20540;-77
2023/01/01 13:02:24;;;;;;;;;;;;;;;13.61;74.90;102190.22;5013999;28;19922;-77
2023/01/01 13:05:14;;;;;;;;;;;;;;;13.41;74.46;102182.38;5008455;28;20297;-78
2023/01/01 13:08:02;;;;;;;;;;;;;;;13.37;75.70;102184.09;5007657;28;19921;-78
2023/01/01 13:10:49;;;;;;;;;;;;;;;13.38;75.20;102184.91;5007831;28;19922;-77
2023/01/01 13:13:33;;;;;;;;;;;;;;;13.33;75.68;102180.34;5010732;28;20404;-77
2023/01/01 13:16:33;;;;;;;;;;;;;;;12.90;76.44;102176.06;5004754;28;19918;-77
2023/01/01 13:19:32;;;;;;;;;;;;;;;13.21;75.91;102179.97;5006168;28;20397;-77
2023/01/01 13:22:26;;;;;;;;;;;;;;;13.43;74.78;102188.38;5007921;28;19921;-76
2023/01/01 13:25:10;;;;;;;;;;;;;;;13.50;74.47;102177.88;5026206;28;19921;-77
2023/01/01 13:28:03;;;;;;;;;;;;;;;13.31;74.94;102176.28;5017827;28;19917;-78
2023/01/01 13:30:49;;;;;;;;;;;;;;;13.30;74.79;102172.75;5029975;28;19918;-77
2023/01/01 13:33:35;;;;;;;;;;;;;;;12.64;75.78;102175.59;5009080;28;19918;-77
2023/01/01 13:36:20;;;;;;;;;;;;;;;12.32;78.43;102170.81;5004459;28;19917;-76
2023/01/01 13:39:05;;;;;;;;;;;;;;;12.03;79.38;102175.50;5007047;28;19926;-79
2023/01/01 13:41:50;;;;;;;;;;;;;;;12.11;79.28;102172.13;5013687;28;19921;-78
2023/01/01 13:44:35;;;;;;;;;;;;;;;11.84;80.25;102173.50;5013133;28;19918;-79
2023/01/01 13:47:28;;;;;;;;;;;;;;;11.67;81.42;102177.75;5005901;28;19917;-78
2023/01/01 13:50:19;;;;;;;;;;;;;;;11.68;82.10;102182.91;5007461;28;19918;-78
2023/01/01 13:53:13;;;;;;;;;;;;;;;11.50;83.03;102180.88;5003361;28;19925;-78
2023/01/01 13:56:09;;;;;;;;;;;;;;;11.59;82.87;102181.88;5002188;28;19926;-78
2023/01/01 13:58:54;;;;;;;;;;;;;;;11.66;82.37;102178.84;5007605;28;19925;-79
2023/01/01 14:01:44;;;;;;;;;;;;;;;11.74;82.73;102189.13;5015861;28;19918;-79
2023/01/01 14:04:32;;;;;;;;;;;;;;;11.66;82.49;102187.81;5010978;28;20385;-78
2023/01/01 14:07:52;;;;;;;;;;;;;;;11.51;83.43;102186.03;5006154;28;19917;-78
2023/01/01 14:10:37;;;;;;;;;;;;;;;11.47;84.10;102190.44;5015788;28;19917;-83
2023/01/01 14:13:28;;;;;;;;;;;;;;;11.58;83.18;102185.69;5022081;28;19917;-78
2023/01/01 14:16:14;;;;;;;;;;;;;;;11.52;83.21;102197.75;5006254;28;19921;-79
2023/01/01 14:19:00;;;;;;;;;;;;;;;11.52;83.25;102195.84;5008416;28;19922;-79
2023/01/01 14:21:44;;;;;;;;;;;;;;;11.62;83.05;102192.22;5007473;28;19921;-79
2023/01/01 14:24:30;;;;;;;;;;;;;;;11.50;83.75;102194.50;5006417;28;19917;-78